Un Pendik — TCOD2 — position and weather

sailwx.info

Track history (hours):
 
Tides and Currents Weather Stations Pressure Air Temp Water Temp Dewpoint Dewpoint Depression Visibility Wind Speed Wind Dir Waves Ship Positions

Un Pendik

Last reported at 2017-May-23 07:00 UTC. Time now 2017-May-23 07:01 UTC.
Position N 42°11' E 007°31'.

Length 193 m; draft 6.5 m.

Type: Ship (hazmat cat A). MMSI: 271000792.

Date/timePositionNaut miles runAvg speedWind from/ knotsBaromVisibWave heightAir tempDewpointWater temp
2017-May-23 07:00N 42°11' E 007°31'1019.4
2017-May-23 06:30N 42°05' E 007°42'1019.7
2017-May-23 06:00N 41°59' E 007°52'1019.8
2017-May-23 05:31N 41°53' E 008°03'1019.6
2017-May-23 05:01N 41°47' E 008°14'1019.6
2017-May-23 04:30N 41°41' E 008°24'1019.6
2017-May-23 04:01N 41°35' E 008°34'1019.6
2017-May-23 03:30N 41°29' E 008°45'1019.6
2017-May-23 02:59N 41°24' E 008°56'1019.7
2017-May-23 02:29N 41°19' E 009°07'1018.4
2017-May-23 01:58N 41°20' E 009°20'918.7
2017-May-23 01:30N 41°21' E 009°32'919.3
2017-May-23 01:00N 41°17' E 009°43'1019.3
2017-May-23 00:29N 41°12' E 009°54'919.2
2017-May-23 00:01N 41°07' E 010°05'1019.2
2017-May-22 23:30N 41°02' E 010°16'1019.5
2017-May-22 22:58N 40°56' E 010°27'919.6
2017-May-22 22:29N 40°51' E 010°38'1019.7
2017-May-22 22:00N 40°46' E 010°48'1019.7
2017-May-22 21:30N 40°41' E 010°59'1019.6
2017-May-22 20:58N 40°35' E 011°11'1019.9
2017-May-22 20:28N 40°30' E 011°22'920.2
2017-May-22 20:01N 40°25' E 011°33'1120.1
2017-May-22 19:27N 40°19' E 011°45'1120.0
2017-May-22 18:55N 40°13' E 011°57'819.7
2017-May-22 18:29N 40°09' E 012°06'1019.7
2017-May-22 17:58N 40°04' E 012°18'1019.8
2017-May-22 17:29N 39°59' E 012°29'5819.8
2017-May-22 14:32N 39°29' E 013°34'1119.9
2017-May-22 14:00N 39°24' E 013°46'4319.7
2017-May-22 11:50N 38°60' E 014°32'719.6
2017-May-22 11:30N 38°56' E 014°39'1019.6
2017-May-22 10:59N 38°51' E 014°50'919.5
2017-May-22 10:30N 38°46' E 015°00'1019.3
2017-May-22 10:00N 38°41' E 015°11'919.1
2017-May-22 09:31N 38°36' E 015°20'1019.2
2017-May-22 09:01N 38°29' E 015°30'1019.2
2017-May-22 08:31N 38°23' E 015°39'714.1
2017-May-22 08:01N 38°16' E 015°41'815.3
2017-May-22 07:30N 38°09' E 015°37'612.7
2017-May-22 07:00N 38°03' E 015°36'917.9
2017-May-22 06:30N 37°55' E 015°41'1019.3
2017-May-22 06:00N 37°52' E 015°52'39016.5
2017-May-21 06:23N 37°32' E 024°04'  
2017-May-18 04:22N 37°43' E 016°22'718.8
2017-May-18 04:00N 37°45' E 016°14'918.8
2017-May-18 03:30N 37°47' E 016°03'1019.2
2017-May-18 02:59N 37°50' E 015°51'919.0
2017-May-18 02:31N 37°54' E 015°40'918.3
2017-May-18 02:00N 38°02' E 015°35'1019.7
2017-May-18 01:30N 38°12' E 015°36'815.9
2017-May-18 01:00N 38°20' E 015°38'1019.9
2017-May-18 00:30N 38°27' E 015°29'1020.2
2017-May-18 00:01N 38°33' E 015°19'1019.6
2017-May-17 23:30N 38°40' E 015°10'1019.2
2017-May-17 23:01N 38°44' E 014°59'1019.3
2017-May-17 22:30N 38°49' E 014°49'1019.2
2017-May-17 21:58N 38°55' E 014°37'918.9
2017-May-17 21:30N 38°60' E 014°28'1918.9
2017-May-17 20:31N 39°09' E 014°07'1019.4
2017-May-17 20:01N 39°14' E 013°56'1019.5
2017-May-17 19:30N 39°19' E 013°45'1019.5
2017-May-17 19:01N 39°24' E 013°35'1019.6
2017-May-17 18:31N 39°29' E 013°24'1119.6
2017-May-17 17:58N 39°35' E 013°12'919.4
2017-May-17 17:29N 39°40' E 013°02'1019.4
2017-May-17 17:00N 39°44' E 012°51'1219.2
2017-May-17 16:23N 39°50' E 012°38'819.2
2017-May-17 15:59N 39°55' E 012°29'1119.4
2017-May-17 15:24N 40°01' E 012°17'819.7
2017-May-17 14:59N 40°06' E 012°08'1919.6
2017-May-17 14:00N 40°16' E 011°47'919.4
2017-May-17 13:30N 40°21' E 011°36'1219.5
2017-May-17 12:54N 40°26' E 011°23'819.4
2017-May-17 12:30N 40°30' E 011°14'1019.3
2017-May-17 11:58N 40°36' E 011°02'919.1
2017-May-17 11:29N 40°40' E 010°52'919.2
2017-May-17 11:00N 40°46' E 010°41'1419.4
2017-May-17 10:16N 40°53' E 010°25'519.5
2017-May-17 09:59N 40°56' E 010°19'919.3
2017-May-17 09:30N 41°01' E 010°09'1119.2
2017-May-17 08:57N 41°06' E 009°57'1020.0
2017-May-17 08:27N 41°11' E 009°46'919.4
2017-May-17 07:59N 41°16' E 009°35'19418.5
2017-May-16 21:28N 43°05' E 005°58'3 7.0
2017-May-16 20:59N 43°06' E 005°54'0 0.0
2017-May-16 20:28N 43°06' E 005°54'0 0.0
2017-May-16 19:58N 43°06' E 005°54'0 0.0
2017-May-16 19:28N 43°06' E 005°54'0 0.0
2017-May-16 18:58N 43°06' E 005°54'0 0.0
2017-May-16 18:28N 43°06' E 005°54'0 0.0
2017-May-16 18:00N 43°06' E 005°54'0 0.0
2017-May-16 17:30N 43°06' E 005°54'0 0.0
2017-May-16 17:00N 43°06' E 005°54'0 0.0
2017-May-16 16:30N 43°06' E 005°54'0 0.0
2017-May-16 15:59N 43°06' E 005°54'0 0.0
2017-May-16 15:29N 43°06' E 005°54'0 0.0
2017-May-16 14:59N 43°06' E 005°54'0 0.0
2017-May-16 14:29N 43°06' E 005°54'0 0.0
2017-May-16 13:28N 43°06' E 005°54'0 0.0
2017-May-16 12:59N 43°06' E 005°54'0 0.0
2017-May-16 12:28N 43°06' E 005°54'0 0.0
2017-May-16 11:59N 43°06' E 005°54'0 0.0
2017-May-16 11:28N 43°06' E 005°54'0 0.0
2017-May-16 11:00N 43°06' E 005°54'0 0.3
2017-May-16 10:30N 43°06' E 005°54'3 6.6
2017-May-16 10:00N 43°05' E 005°58'918.9
2017-May-16 09:30N 42°56' E 006°01'1020.3
2017-May-16 09:00N 42°46' E 006°04'1020.1
2017-May-16 08:30N 42°36' E 006°07'31218.9
2017-May-15 15:58N 40°07' E 012°13'6214.9
2017-May-15 11:48N 39°33' E 013°21'412.0
2017-May-15 11:30N 39°31' E 013°25'1011.8
2017-May-15 10:39N 39°26' E 013°37'211.7
2017-May-15 10:27N 39°25' E 013°39'613.7
2017-May-15 10:00N 39°21' E 013°46'4419.6
2017-May-15 07:46N 38°59' E 014°34'619.7
2017-May-15 07:28N 38°56' E 014°40'919.6
2017-May-15 07:00N 38°51' E 014°51'919.4
2017-May-15 06:31N 38°46' E 015°01'1019.3
2017-May-15 06:00N 38°41' E 015°11'919.0
2017-May-15 05:31N 38°34' E 015°20'918.9
2017-May-15 05:01N 38°28' E 015°29'919.0
2017-May-15 04:31N 38°21' E 015°38'612.9
2017-May-15 04:00N 38°15' E 015°39'816.9
2017-May-15 03:31N 38°06' E 015°36'917.6
2017-May-15 03:00N 37°58' E 015°37'918.7
2017-May-15 02:31N 37°52' E 015°47'1219.3
2017-May-15 01:53N 37°50' E 016°02'38016.0
2017-May-14 02:04N 37°27' E 024°02'119.4
2017-May-14 02:00N 37°28' E 024°03'1919.1
2017-May-14 01:02N 37°44' E 024°16'14118.6
2017-May-13 17:26N 39°46' E 025°47'1118.8
2017-May-13 16:52N 39°55' E 025°54'  
Track history (hours):
 
Tides and Currents Weather Stations Pressure Air Temp Water Temp Dewpoint Dewpoint Depression Visibility Wind Speed Wind Dir Waves Ship Positions

Un Pendik

Last reported at 2017-May-23 07:00 UTC. Time now 2017-May-23 07:01 UTC.
Position N 42°11' E 007°31'.

Length 193 m; draft 6.5 m.

Type: Ship (hazmat cat A). MMSI: 271000792.

Date/timePositionNaut miles runAvg speedWind from/ knotsBaromVisibWave heightAir tempDewpointWater temp
2017-May-23 07:00N 42°11' E 007°31'1019.4
2017-May-23 06:30N 42°05' E 007°42'1019.7
2017-May-23 06:00N 41°59' E 007°52'1019.8
2017-May-23 05:31N 41°53' E 008°03'1019.6
2017-May-23 05:01N 41°47' E 008°14'1019.6
2017-May-23 04:30N 41°41' E 008°24'1019.6
2017-May-23 04:01N 41°35' E 008°34'1019.6
2017-May-23 03:30N 41°29' E 008°45'1019.6
2017-May-23 02:59N 41°24' E 008°56'1019.7
2017-May-23 02:29N 41°19' E 009°07'1018.4
2017-May-23 01:58N 41°20' E 009°20'918.7
2017-May-23 01:30N 41°21' E 009°32'919.3
2017-May-23 01:00N 41°17' E 009°43'1019.3
2017-May-23 00:29N 41°12' E 009°54'919.2
2017-May-23 00:01N 41°07' E 010°05'1019.2
2017-May-22 23:30N 41°02' E 010°16'1019.5
2017-May-22 22:58N 40°56' E 010°27'919.6
2017-May-22 22:29N 40°51' E 010°38'1019.7
2017-May-22 22:00N 40°46' E 010°48'1019.7
2017-May-22 21:30N 40°41' E 010°59'1019.6
2017-May-22 20:58N 40°35' E 011°11'1019.9
2017-May-22 20:28N 40°30' E 011°22'920.2
2017-May-22 20:01N 40°25' E 011°33'1120.1
2017-May-22 19:27N 40°19' E 011°45'1120.0
2017-May-22 18:55N 40°13' E 011°57'819.7
2017-May-22 18:29N 40°09' E 012°06'1019.7
2017-May-22 17:58N 40°04' E 012°18'1019.8
2017-May-22 17:29N 39°59' E 012°29'5819.8
2017-May-22 14:32N 39°29' E 013°34'1119.9
2017-May-22 14:00N 39°24' E 013°46'4319.7
2017-May-22 11:50N 38°60' E 014°32'719.6
2017-May-22 11:30N 38°56' E 014°39'1019.6
2017-May-22 10:59N 38°51' E 014°50'919.5
2017-May-22 10:30N 38°46' E 015°00'1019.3
2017-May-22 10:00N 38°41' E 015°11'919.1
2017-May-22 09:31N 38°36' E 015°20'1019.2
2017-May-22 09:01N 38°29' E 015°30'1019.2
2017-May-22 08:31N 38°23' E 015°39'714.1
2017-May-22 08:01N 38°16' E 015°41'815.3
2017-May-22 07:30N 38°09' E 015°37'612.7
2017-May-22 07:00N 38°03' E 015°36'917.9
2017-May-22 06:30N 37°55' E 015°41'1019.3
2017-May-22 06:00N 37°52' E 015°52'39016.5
2017-May-21 06:23N 37°32' E 024°04'  
2017-May-18 04:22N 37°43' E 016°22'718.8
2017-May-18 04:00N 37°45' E 016°14'918.8
2017-May-18 03:30N 37°47' E 016°03'1019.2
2017-May-18 02:59N 37°50' E 015°51'919.0
2017-May-18 02:31N 37°54' E 015°40'918.3
2017-May-18 02:00N 38°02' E 015°35'1019.7
2017-May-18 01:30N 38°12' E 015°36'815.9
2017-May-18 01:00N 38°20' E 015°38'1019.9
2017-May-18 00:30N 38°27' E 015°29'1020.2
2017-May-18 00:01N 38°33' E 015°19'1019.6
2017-May-17 23:30N 38°40' E 015°10'1019.2
2017-May-17 23:01N 38°44' E 014°59'1019.3
2017-May-17 22:30N 38°49' E 014°49'1019.2
2017-May-17 21:58N 38°55' E 014°37'918.9
2017-May-17 21:30N 38°60' E 014°28'1918.9
2017-May-17 20:31N 39°09' E 014°07'1019.4
2017-May-17 20:01N 39°14' E 013°56'1019.5
2017-May-17 19:30N 39°19' E 013°45'1019.5
2017-May-17 19:01N 39°24' E 013°35'1019.6
2017-May-17 18:31N 39°29' E 013°24'1119.6
2017-May-17 17:58N 39°35' E 013°12'919.4
2017-May-17 17:29N 39°40' E 013°02'1019.4
2017-May-17 17:00N 39°44' E 012°51'1219.2
2017-May-17 16:23N 39°50' E 012°38'819.2
2017-May-17 15:59N 39°55' E 012°29'1119.4
2017-May-17 15:24N 40°01' E 012°17'819.7
2017-May-17 14:59N 40°06' E 012°08'1919.6
2017-May-17 14:00N 40°16' E 011°47'919.4
2017-May-17 13:30N 40°21' E 011°36'1219.5
2017-May-17 12:54N 40°26' E 011°23'819.4
2017-May-17 12:30N 40°30' E 011°14'1019.3
2017-May-17 11:58N 40°36' E 011°02'919.1
2017-May-17 11:29N 40°40' E 010°52'919.2
2017-May-17 11:00N 40°46' E 010°41'1419.4
2017-May-17 10:16N 40°53' E 010°25'519.5
2017-May-17 09:59N 40°56' E 010°19'919.3
2017-May-17 09:30N 41°01' E 010°09'1119.2
2017-May-17 08:57N 41°06' E 009°57'1020.0
2017-May-17 08:27N 41°11' E 009°46'919.4
2017-May-17 07:59N 41°16' E 009°35'19418.5
2017-May-16 21:28N 43°05' E 005°58'3 7.0
2017-May-16 20:59N 43°06' E 005°54'0 0.0
2017-May-16 20:28N 43°06' E 005°54'0 0.0
2017-May-16 19:58N 43°06' E 005°54'0 0.0
2017-May-16 19:28N 43°06' E 005°54'0 0.0
2017-May-16 18:58N 43°06' E 005°54'0 0.0
2017-May-16 18:28N 43°06' E 005°54'0 0.0
2017-May-16 18:00N 43°06' E 005°54'0 0.0
2017-May-16 17:30N 43°06' E 005°54'0 0.0
2017-May-16 17:00N 43°06' E 005°54'0 0.0
2017-May-16 16:30N 43°06' E 005°54'0 0.0
2017-May-16 15:59N 43°06' E 005°54'0 0.0
2017-May-16 15:29N 43°06' E 005°54'0 0.0
2017-May-16 14:59N 43°06' E 005°54'0 0.0
2017-May-16 14:29N 43°06' E 005°54'0 0.0
2017-May-16 13:28N 43°06' E 005°54'0 0.0
2017-May-16 12:59N 43°06' E 005°54'0 0.0
2017-May-16 12:28N 43°06' E 005°54'0 0.0
2017-May-16 11:59N 43°06' E 005°54'0 0.0
2017-May-16 11:28N 43°06' E 005°54'0 0.0
2017-May-16 11:00N 43°06' E 005°54'0 0.3
2017-May-16 10:30N 43°06' E 005°54'3 6.6
2017-May-16 10:00N 43°05' E 005°58'918.9
2017-May-16 09:30N 42°56' E 006°01'1020.3
2017-May-16 09:00N 42°46' E 006°04'1020.1
2017-May-16 08:30N 42°36' E 006°07'31218.9
2017-May-15 15:58N 40°07' E 012°13'6214.9
2017-May-15 11:48N 39°33' E 013°21'412.0
2017-May-15 11:30N 39°31' E 013°25'1011.8
2017-May-15 10:39N 39°26' E 013°37'211.7
2017-May-15 10:27N 39°25' E 013°39'613.7
2017-May-15 10:00N 39°21' E 013°46'4419.6
2017-May-15 07:46N 38°59' E 014°34'619.7
2017-May-15 07:28N 38°56' E 014°40'919.6
2017-May-15 07:00N 38°51' E 014°51'919.4
2017-May-15 06:31N 38°46' E 015°01'1019.3
2017-May-15 06:00N 38°41' E 015°11'919.0
2017-May-15 05:31N 38°34' E 015°20'918.9
2017-May-15 05:01N 38°28' E 015°29'919.0
2017-May-15 04:31N 38°21' E 015°38'612.9
2017-May-15 04:00N 38°15' E 015°39'816.9
2017-May-15 03:31N 38°06' E 015°36'917.6
2017-May-15 03:00N 37°58' E 015°37'918.7
2017-May-15 02:31N 37°52' E 015°47'1219.3
2017-May-15 01:53N 37°50' E 016°02'38016.0
2017-May-14 02:04N 37°27' E 024°02'119.4
2017-May-14 02:00N 37°28' E 024°03'1919.1
2017-May-14 01:02N 37°44' E 024°16'14118.6
2017-May-13 17:26N 39°46' E 025°47'1118.8
2017-May-13 16:52N 39°55' E 025°54'  

Dump ship's entire track history